Time;durP1;ratioP1;P1;durP2;ratioP2;P2;SDS_P1;SDS_P2;PMS_P1;PMS_P2;Temp;Humidity;BMP_temperature;BMP_pressure;BME280_temperature;BME280_humidity;BME280_pressure;Samples;Min_cycle;Max_cycle;Signal;HPM_P1;HPM_P2
2020/12/30 00:01:06;;;;;;;4.13;1.63;;;22.30;82.40;;;;;;5071740;28;20086;-64
2020/12/30 00:03:35;;;;;;;5.03;1.90;;;22.30;82.20;;;;;;5070959;28;20028;-61
2020/12/30 00:06:05;;;;;;;5.20;1.67;;;22.30;82.20;;;;;;5071950;28;20020;-62
2020/12/30 00:08:32;;;;;;;4.18;1.77;;;22.30;82.00;;;;;;5071680;28;20400;-63
2020/12/30 00:10:59;;;;;;;2.45;1.50;;;22.30;81.80;;;;;;5071146;28;20058;-64
2020/12/30 00:13:27;;;;;;;6.45;1.83;;;22.40;81.90;;;;;;5071232;28;20028;-61
2020/12/30 00:15:54;;;;;;;3.83;1.42;;;22.40;81.80;;;;;;5071455;28;20020;-61
2020/12/30 00:18:22;;;;;;;3.67;1.50;;;22.40;81.70;;;;;;5071506;28;20033;-63
2020/12/30 00:20:49;;;;;;;3.58;1.30;;;22.40;81.50;;;;;;5070985;28;20234;-62
2020/12/30 00:23:16;;;;;;;9.05;1.80;;;22.50;81.50;;;;;;5071407;28;20471;-61
2020/12/30 00:25:44;;;;;;;5.65;1.70;;;22.50;81.30;;;;;;5070754;28;20092;-54
2020/12/30 00:28:11;;;;;;;5.93;1.55;;;22.50;81.30;;;;;;5071348;28;20068;-63
2020/12/30 00:30:38;;;;;;;5.53;1.65;;;22.50;81.00;;;;;;5070718;28;20459;-62
2020/12/30 00:33:06;;;;;;;5.00;1.63;;;22.60;80.90;;;;;;5071227;28;20044;-62
2020/12/30 00:35:34;;;;;;;5.38;1.70;;;22.60;80.90;;;;;;5071173;28;20407;-62
2020/12/30 00:38:01;;;;;;;6.07;2.03;;;22.60;80.60;;;;;;5071239;28;20036;-64
2020/12/30 00:40:28;;;;;;;6.82;1.52;;;22.70;80.50;;;;;;5070768;28;20047;-64
2020/12/30 00:42:56;;;;;;;4.63;1.42;;;22.70;80.40;;;;;;5070950;28;20059;-66
2020/12/30 00:45:23;;;;;;;5.68;1.80;;;22.70;80.50;;;;;;5073220;28;20503;-62
2020/12/30 00:47:50;;;;;;;8.07;1.90;;;22.70;80.20;;;;;;5074769;28;20036;-65
2020/12/30 00:50:18;;;;;;;5.47;1.88;;;22.80;80.00;;;;;;5062632;28;20432;-63
2020/12/30 00:52:45;;;;;;;5.68;1.63;;;22.90;79.70;;;;;;5054746;28;20079;-63
2020/12/30 00:55:13;;;;;;;3.17;1.45;;;22.90;79.90;;;;;;5054454;28;20119;-64
2020/12/30 00:57:40;;;;;;;3.92;1.33;;;22.90;79.80;;;;;;5054077;28;20033;-63
2020/12/30 01:00:08;;;;;;;4.53;1.70;;;23.00;80.10;;;;;;5053392;28;20021;-60
2020/12/30 01:02:38;;;;;;;5.40;1.58;;;23.00;79.40;;;;;;5054565;28;20037;-64
2020/12/30 01:05:05;;;;;;;6.25;1.60;;;23.10;79.10;;;;;;5054568;28;20353;-63
2020/12/30 01:07:33;;;;;;;5.65;1.63;;;23.20;78.20;;;;;;5054344;28;20021;-62
2020/12/30 01:10:00;;;;;;;6.25;1.65;;;23.20;78.60;;;;;;5054448;28;20025;-64
2020/12/30 01:12:27;;;;;;;6.97;1.88;;;23.20;78.80;;;;;;5054461;28;20036;-61
2020/12/30 01:14:55;;;;;;;4.50;1.60;;;23.30;78.30;;;;;;5054098;28;20036;-62
2020/12/30 01:17:26;;;;;;;5.43;1.88;;;23.30;78.20;;;;;;5054233;28;20101;-58
2020/12/30 01:19:53;;;;;;;7.77;2.23;;;23.40;78.00;;;;;;5054200;28;20071;-63
2020/12/30 01:22:21;;;;;;;7.03;1.58;;;23.40;77.80;;;;;;5054001;28;20037;-62
2020/12/30 01:24:48;;;;;;;3.80;1.27;;;23.40;78.10;;;;;;5054054;28;20483;-62
2020/12/30 01:27:15;;;;;;;4.88;1.95;;;23.40;77.50;;;;;;5054228;28;20490;-64
2020/12/30 01:29:43;;;;;;;5.68;1.73;;;23.50;77.40;;;;;;5053664;28;20036;-64
2020/12/30 01:32:10;;;;;;;4.32;1.55;;;23.60;77.30;;;;;;5054011;28;20071;-64
2020/12/30 01:34:37;;;;;;;3.05;1.13;;;23.60;76.60;;;;;;5053958;28;20029;-63
2020/12/30 01:37:05;;;;;;;5.97;1.75;;;23.70;76.60;;;;;;5054108;28;20028;-62
2020/12/30 01:39:32;;;;;;;7.50;2.03;;;23.70;76.50;;;;;;5068822;28;20387;-64
2020/12/30 01:42:00;;;;;;;5.38;1.80;;;23.80;76.00;;;;;;5073463;28;20036;-61
2020/12/30 01:44:27;;;;;;;6.28;1.77;;;23.80;76.60;;;;;;5073724;28;20027;-61
2020/12/30 01:46:55;;;;;;;3.35;1.80;;;23.80;76.20;;;;;;5073855;28;20028;-63
2020/12/30 01:49:24;;;;;;;4.57;1.83;;;23.90;76.10;;;;;;5073487;28;20032;-61
2020/12/30 01:51:53;;;;;;;6.50;2.30;;;23.90;75.40;;;;;;5073340;28;20051;-63
2020/12/30 01:54:21;;;;;;;6.40;1.70;;;24.10;75.30;;;;;;5071927;28;20467;-64
2020/12/30 01:56:49;;;;;;;4.50;1.92;;;24.10;75.30;;;;;;5072069;28;20052;-59
2020/12/30 01:59:18;;;;;;;3.83;1.38;;;24.10;75.60;;;;;;5073706;28;20447;-62
2020/12/30 02:01:54;;;;;;;7.53;1.85;;;24.10;75.40;;;;;;5072988;28;20041;-61
2020/12/30 02:04:25;;;;;;;8.32;1.65;;;24.20;75.30;;;;;;5073059;28;20028;-61
2020/12/30 02:06:55;;;;;;;4.40;1.55;;;24.20;74.50;;;;;;5073489;28;20029;-61
2020/12/30 02:09:22;;;;;;;6.70;1.73;;;24.30;74.90;;;;;;5073402;28;20036;-61
2020/12/30 02:11:51;;;;;;;5.53;1.50;;;24.30;74.90;;;;;;5072973;28;20112;-62
2020/12/30 02:14:21;;;;;;;3.63;1.50;;;24.40;74.40;;;;;;5072798;28;20032;-62
2020/12/30 02:16:53;;;;;;;4.15;1.52;;;24.30;74.70;;;;;;5072688;28;20024;-61
2020/12/30 02:19:20;;;;;;;4.60;1.60;;;24.50;73.40;;;;;;5072759;28;20041;-59
2020/12/30 02:21:49;;;;;;;6.15;1.67;;;24.50;74.30;;;;;;5073024;28;20036;-62
2020/12/30 02:24:26;;;;;;;6.05;1.98;;;24.50;73.80;;;;;;5072557;28;20074;-64
2020/12/30 02:26:55;;;;;;;6.07;1.52;;;24.50;73.70;;;;;;5072972;28;20025;-63
2020/12/30 02:29:22;;;;;;;6.07;1.98;;;24.50;73.90;;;;;;5072667;28;20442;-64
2020/12/30 02:31:50;;;;;;;8.88;1.70;;;24.50;74.00;;;;;;5071737;28;20395;-65
2020/12/30 02:34:18;;;;;;;6.07;1.77;;;24.50;74.00;;;;;;5072592;28;20059;-64
2020/12/30 02:36:45;;;;;;;5.85;1.85;;;24.50;74.40;;;;;;5072621;28;20031;-64
2020/12/30 02:39:13;;;;;;;6.32;2.30;;;24.60;73.50;;;;;;5072485;28;20058;-64
2020/12/30 02:41:40;;;;;;;4.45;1.63;;;24.60;73.30;;;;;;5072060;28;20447;-64
2020/12/30 02:44:11;;;;;;;5.38;1.58;;;24.60;73.00;;;;;;5072608;28;20017;-64
2020/12/30 02:46:38;;;;;;;5.95;1.77;;;24.70;73.70;;;;;;5072574;28;20111;-64
2020/12/30 02:49:05;;;;;;;3.65;1.88;;;24.70;73.20;;;;;;5072188;28;20029;-63
2020/12/30 02:51:33;;;;;;;4.95;1.58;;;24.70;73.90;;;;;;5072044;28;20028;-70
2020/12/30 02:54:00;;;;;;;6.32;2.00;;;24.70;74.10;;;;;;5072169;28;20028;-64
2020/12/30 02:56:27;;;;;;;3.70;1.60;;;24.60;72.50;;;;;;5071888;28;20039;-63
2020/12/30 02:58:55;;;;;;;3.80;1.90;;;24.60;73.40;;;;;;5072431;28;20095;-64
2020/12/30 03:01:22;;;;;;;4.60;1.90;;;24.70;74.20;;;;;;5072204;28;20032;-63
2020/12/30 03:03:50;;;;;;;6.43;2.03;;;24.70;72.40;;;;;;5072568;28;20051;-67
2020/12/30 03:06:23;;;;;;;4.55;1.77;;;24.70;74.00;;;;;;5072700;28;20028;-64
2020/12/30 03:08:50;;;;;;;3.85;1.50;;;24.70;72.90;;;;;;5070803;28;20328;-66
2020/12/30 03:11:18;;;;;;;5.20;1.35;;;24.80;73.30;;;;;;5072323;28;20043;-67
2020/12/30 03:13:45;;;;;;;6.75;1.90;;;24.80;72.50;;;;;;5071792;28;20052;-63
2020/12/30 03:16:12;;;;;;;6.45;1.80;;;24.80;74.10;;;;;;5072070;28;20119;-63
2020/12/30 03:18:39;;;;;;;3.72;2.20;;;24.80;73.50;;;;;;5072178;28;20029;-64
2020/12/30 03:21:07;;;;;;;4.13;1.10;;;24.90;72.20;;;;;;5071705;28;20098;-66
2020/12/30 03:23:34;;;;;;;4.18;1.30;;;24.90;73.30;;;;;;5071844;28;20488;-64
2020/12/30 03:26:02;;;;;;;6.07;1.48;;;24.90;73.60;;;;;;5071966;28;20047;-66
2020/12/30 03:28:29;;;;;;;3.97;1.33;;;24.80;73.70;;;;;;5071915;28;20459;-64
2020/12/30 03:30:56;;;;;;;2.05;1.10;;;24.90;73.00;;;;;;5072005;28;20470;-66
2020/12/30 03:33:24;;;;;;;4.03;1.30;;;24.90;73.30;;;;;;5071272;28;20044;-65
2020/12/30 03:35:51;;;;;;;6.05;1.73;;;24.90;72.40;;;;;;5071604;28;20039;-63
2020/12/30 03:38:18;;;;;;;6.63;1.88;;;24.90;71.80;;;;;;5071334;28;20431;-63
2020/12/30 03:40:46;;;;;;;5.45;1.85;;;24.80;72.30;;;;;;5071688;28;20094;-64
2020/12/30 03:43:13;;;;;;;4.25;1.30;;;24.80;73.30;;;;;;5071556;28;20049;-65
2020/12/30 03:45:40;;;;;;;4.32;1.55;;;24.80;73.20;;;;;;5071688;28;20029;-65
2020/12/30 03:48:08;;;;;;;5.43;2.10;;;24.80;73.70;;;;;;5071954;28;20047;-63
2020/12/30 03:50:35;;;;;;;5.78;1.92;;;24.70;73.70;;;;;;5072075;28;20051;-67
2020/12/30 03:53:02;;;;;;;4.45;1.45;;;24.70;73.70;;;;;;5072034;28;20017;-64
2020/12/30 03:55:33;;;;;;;3.20;1.25;;;24.70;74.60;;;;;;5071287;28;20094;-62
2020/12/30 03:58:00;;;;;;;7.80;1.48;;;24.60;74.70;;;;;;5070231;28;20039;-62
2020/12/30 04:00:28;;;;;;;5.50;2.15;;;24.70;74.40;;;;;;5072017;28;20033;-63
2020/12/30 04:02:55;;;;;;;3.90;1.20;;;24.60;74.00;;;;;;5071969;28;20097;-63
2020/12/30 04:05:22;;;;;;;5.30;1.35;;;24.60;74.90;;;;;;5071722;28;20120;-60
2020/12/30 04:07:50;;;;;;;5.13;1.52;;;24.60;74.50;;;;;;5071512;28;20100;-64
2020/12/30 04:10:17;;;;;;;4.28;1.38;;;24.50;74.60;;;;;;5071427;28;20025;-61
2020/12/30 04:12:44;;;;;;;3.50;1.50;;;24.50;74.70;;;;;;5071765;28;20029;-65
2020/12/30 04:15:11;;;;;;;5.43;1.20;;;24.50;75.50;;;;;;5071867;28;20255;-65
2020/12/30 04:17:39;;;;;;;3.97;1.52;;;24.40;75.50;;;;;;5071464;28;20446;-62
2020/12/30 04:20:09;;;;;;;10.13;2.13;;;24.40;75.70;;;;;;5073118;28;20047;-64
2020/12/30 04:22:36;;;;;;;4.10;1.52;;;24.40;74.60;;;;;;5075802;28;20036;-62
2020/12/30 04:25:04;;;;;;;3.78;1.38;;;24.40;75.80;;;;;;5075220;28;20099;-60
2020/12/30 04:27:31;;;;;;;6.28;1.65;;;24.40;75.90;;;;;;5074657;28;20024;-61
2020/12/30 04:29:59;;;;;;;6.30;1.65;;;24.30;74.30;;;;;;5074230;28;20043;-62
2020/12/30 04:32:26;;;;;;;5.13;1.92;;;24.30;75.10;;;;;;5075183;28;20058;-66
2020/12/30 04:34:53;;;;;;;6.03;1.65;;;24.30;75.90;;;;;;5074881;28;20029;-62
2020/12/30 04:37:21;;;;;;;5.63;1.63;;;24.30;76.10;;;;;;5075089;28;20043;-62
2020/12/30 04:39:48;;;;;;;5.50;1.70;;;24.30;74.70;;;;;;5072273;28;20032;-62
2020/12/30 04:42:22;;;;;;;6.78;1.92;;;24.30;75.30;;;;;;5074728;28;20124;-63
2020/12/30 04:44:54;;;;;;;2.70;1.10;;;24.30;75.40;;;;;;5075046;28;20028;-62
2020/12/30 04:47:23;;;;;;;2.90;1.48;;;24.20;76.10;;;;;;5075161;28;20442;-63
2020/12/30 04:49:51;;;;;;;4.10;1.58;;;24.20;76.60;;;;;;5074328;28;20107;-63
2020/12/30 04:52:21;;;;;;;4.47;1.30;;;24.20;76.50;;;;;;5074919;28;20025;-61
2020/12/30 04:54:50;;;;;;;5.25;1.90;;;24.10;76.20;;;;;;5074927;28;20024;-65
2020/12/30 04:57:54;;;;;;;6.10;2.00;;;24.10;76.70;;;;;;5073196;28;20028;-63
2020/12/30 05:00:22;;;;;;;6.68;2.15;;;24.10;76.40;;;;;;5074784;28;20024;-63
2020/12/30 05:02:52;;;;;;;4.25;1.45;;;24.10;76.50;;;;;;5074782;28;20024;-54
2020/12/30 05:05:19;;;;;;;5.78;1.80;;;24.10;76.60;;;;;;5074781;28;20024;-58
2020/12/30 05:07:47;;;;;;;4.20;1.48;;;24.10;76.80;;;;;;5074100;28;20056;-60
2020/12/30 05:10:16;;;;;;;3.63;1.63;;;24.10;76.50;;;;;;5063542;28;20028;-63
2020/12/30 05:12:44;;;;;;;7.05;1.80;;;24.00;76.00;;;;;;5070288;28;20097;-61
2020/12/30 05:15:11;;;;;;;4.18;1.30;;;24.00;76.60;;;;;;5069451;28;20052;-54
2020/12/30 05:17:40;;;;;;;6.93;1.73;;;24.10;76.40;;;;;;5070605;28;20139;-61
2020/12/30 05:20:11;;;;;;;5.38;1.48;;;24.10;76.00;;;;;;5072404;28;20048;-60
2020/12/30 05:22:38;;;;;;;4.13;1.80;;;24.10;76.20;;;;;;5071778;28;20549;-61
2020/12/30 05:25:07;;;;;;;5.03;1.02;;;24.10;76.40;;;;;;5071825;28;20059;-55
2020/12/30 05:27:38;;;;;;;4.30;1.35;;;24.10;76.10;;;;;;5068291;28;20050;-58
2020/12/30 05:30:05;;;;;;;4.05;1.27;;;24.10;75.90;;;;;;5072156;28;20108;-63
2020/12/30 05:32:37;;;;;;;4.25;1.63;;;24.10;76.30;;;;;;5072734;28;20032;-60
2020/12/30 05:35:05;;;;;;;6.22;1.48;;;24.10;76.60;;;;;;5073337;28;20067;-60
2020/12/30 05:37:36;;;;;;;9.23;1.98;;;24.10;76.50;;;;;;5069182;28;20028;-64
2020/12/30 05:40:20;;;;;;;7.63;2.08;;;24.00;76.00;;;;;;5070860;28;20173;-60
2020/12/30 05:42:48;;;;;;;5.43;1.50;;;24.00;75.10;;;;;;5069758;28;20056;-60
2020/12/30 05:45:24;;;;;;;4.30;1.50;;;24.00;76.50;;;;;;5073145;28;20457;-60
2020/12/30 05:47:54;;;;;;;4.25;1.30;;;24.00;76.10;;;;;;5065872;28;20111;-61
2020/12/30 05:50:25;;;;;;;5.25;1.55;;;24.00;76.60;;;;;;5071877;28;20052;-59
2020/12/30 05:52:53;;;;;;;4.72;1.60;;;24.00;76.10;;;;;;5073017;28;20035;-63
2020/12/30 05:55:29;;;;;;;7.55;1.60;;;24.00;76.30;;;;;;5071145;28;20056;-58
2020/12/30 05:58:02;;;;;;;8.55;1.85;;;24.00;76.60;;;;;;5068288;28;20044;-61
2020/12/30 06:00:32;;;;;;;6.25;1.70;;;23.90;76.30;;;;;;5071769;28;20027;-58
2020/12/30 06:03:00;;;;;;;5.93;1.58;;;23.90;76.40;;;;;;5072522;28;20051;-61
2020/12/30 06:05:28;;;;;;;2.97;1.30;;;23.90;76.20;;;;;;5072212;28;20032;-64
2020/12/30 06:07:56;;;;;;;4.68;1.20;;;23.90;76.70;;;;;;5068227;28;20037;-61
2020/12/30 06:10:25;;;;;;;3.50;1.60;;;23.90;76.10;;;;;;5070593;28;20021;-61
2020/12/30 06:12:55;;;;;;;6.07;1.75;;;23.90;76.80;;;;;;5072637;28;20048;-59
2020/12/30 06:15:25;;;;;;;6.85;1.10;;;23.90;76.60;;;;;;5072364;28;20023;-67
2020/12/30 06:18:05;;;;;;;4.97;1.77;;;23.80;76.60;;;;;;5067574;28;20108;-63
2020/12/30 06:20:40;;;;;;;7.30;2.15;;;23.90;76.50;;;;;;5070612;28;20426;-63
2020/12/30 06:23:15;;;;;;;6.15;1.52;;;23.80;76.60;;;;;;5072212;28;20080;-63
2020/12/30 06:25:50;;;;;;;2.58;1.20;;;23.80;76.80;;;;;;5070652;28;20172;-63
2020/12/30 06:28:23;;;;;;;4.43;1.45;;;23.80;76.60;;;;;;5067940;28;20403;-53
2020/12/30 06:30:52;;;;;;;4.75;1.70;;;23.80;76.50;;;;;;5069779;28;20039;-59
2020/12/30 06:33:23;;;;;;;4.80;1.30;;;23.80;76.50;;;;;;5072222;28;20054;-59
2020/12/30 06:35:56;;;;;;;4.55;1.52;;;23.90;76.60;;;;;;5068446;28;20021;-62
2020/12/30 06:38:30;;;;;;;3.63;1.15;;;23.80;76.70;;;;;;5067742;28;20055;-59
2020/12/30 06:41:07;;;;;;;4.22;1.23;;;23.80;76.10;;;;;;5070836;28;20025;-62
2020/12/30 06:43:37;;;;;;;7.13;1.48;;;23.80;75.50;;;;;;5070785;28;20063;-61
2020/12/30 06:46:05;;;;;;;5.20;1.63;;;23.80;76.50;;;;;;5071865;28;20100;-63
2020/12/30 06:48:56;;;;;;;5.32;1.65;;;23.70;76.60;;;;;;5067261;28;20467;-62
2020/12/30 06:51:25;;;;;;;3.15;1.27;;;23.70;76.50;;;;;;5069563;28;20064;-61
2020/12/30 06:53:53;;;;;;;3.92;1.50;;;23.70;76.40;;;;;;5071407;28;20421;-57
2020/12/30 06:56:39;;;;;;;5.15;1.73;;;23.70;76.80;;;;;;5072057;28;20114;-57
2020/12/30 06:59:08;;;;;;;3.05;1.00;;;23.70;76.90;;;;;;5066449;28;20031;-55
2020/12/30 07:01:56;;;;;;;4.72;1.50;;;23.70;77.00;;;;;;5069839;28;20085;-64
2020/12/30 07:04:25;;;;;;;5.60;1.70;;;23.70;76.50;;;;;;5071088;28;20016;-57
2020/12/30 07:06:53;;;;;;;4.18;1.27;;;23.70;76.70;;;;;;5071569;28;20039;-52
2020/12/30 07:09:35;;;;;;;3.05;1.30;;;23.80;76.80;;;;;;5063786;28;20466;-56
2020/12/30 07:12:03;;;;;;;5.25;1.52;;;23.80;76.50;;;;;;5069647;28;20024;-59
2020/12/30 07:14:31;;;;;;;3.33;1.20;;;23.80;76.50;;;;;;5071384;28;20025;-64
2020/12/30 07:17:00;;;;;;;3.83;1.20;;;23.80;76.00;;;;;;5071151;28;20367;-58
2020/12/30 07:19:33;;;;;;;3.45;1.30;;;23.80;76.70;;;;;;5064609;28;20128;-61
2020/12/30 07:22:06;;;;;;;4.50;1.30;;;23.80;76.60;;;;;;5066536;28;20104;-62
2020/12/30 07:24:55;;;;;;;4.05;0.93;;;23.80;76.60;;;;;;5070700;28;20027;-56
2020/12/30 07:27:28;;;;;;;6.13;1.23;;;23.70;76.30;;;;;;5068080;28;20078;-57
2020/12/30 07:29:56;;;;;;;4.53;1.27;;;23.80;76.50;;;;;;5068779;28;20032;-60
2020/12/30 07:32:23;;;;;;;4.07;1.30;;;23.70;76.60;;;;;;5068872;28;20426;-60
2020/12/30 07:34:52;;;;;;;3.50;1.38;;;23.70;76.40;;;;;;5070677;28;20029;-60
2020/12/30 07:37:21;;;;;;;4.63;1.35;;;23.80;76.50;;;;;;5070413;28;20060;-58
2020/12/30 07:39:50;;;;;;;3.75;1.17;;;23.70;76.70;;;;;;5068367;28;20032;-61
2020/12/30 07:42:26;;;;;;;4.05;1.00;;;23.80;76.70;;;;;;5070048;28;20032;-60
2020/12/30 07:44:56;;;;;;;5.43;1.50;;;23.80;76.60;;;;;;5070977;28;20035;-58
2020/12/30 07:47:25;;;;;;;3.13;1.33;;;23.70;76.30;;;;;;5068614;28;20016;-57
2020/12/30 07:50:00;;;;;;;3.05;1.25;;;23.70;76.50;;;;;;5069174;28;20028;-64
2020/12/30 07:52:27;;;;;;;3.85;1.15;;;23.70;76.60;;;;;;5070169;28;20190;-62
2020/12/30 07:54:55;;;;;;;1.83;0.73;;;23.70;76.50;;;;;;5074051;28;20027;-57
2020/12/30 07:57:22;;;;;;;4.72;1.60;;;23.70;76.40;;;;;;5073444;28;20039;-60
2020/12/30 07:59:51;;;;;;;5.55;1.38;;;23.70;76.40;;;;;;5071103;28;20024;-58
2020/12/30 08:02:20;;;;;;;2.50;1.13;;;23.70;76.60;;;;;;5074410;28;20052;-61
2020/12/30 08:04:59;;;;;;;7.38;1.70;;;23.70;76.30;;;;;;5074873;28;20078;-65
2020/12/30 08:07:29;;;;;;;3.10;1.13;;;23.70;75.80;;;;;;5072319;28;20032;-62
2020/12/30 08:09:59;;;;;;;6.53;1.48;;;23.70;74.50;;;;;;5074507;28;20107;-62
2020/12/30 08:12:27;;;;;;;5.22;1.67;;;23.70;75.30;;;;;;5073730;28;20035;-65
2020/12/30 08:14:54;;;;;;;6.75;1.65;;;23.70;75.30;;;;;;5074712;28;20032;-65
2020/12/30 08:17:25;;;;;;;7.55;2.13;;;23.70;74.10;;;;;;5071756;28;20035;-55
2020/12/30 08:19:53;;;;;;;4.70;1.70;;;23.60;74.60;;;;;;5070831;28;20052;-52
2020/12/30 08:22:25;;;;;;;6.72;1.88;;;23.60;74.60;;;;;;5073254;28;20040;-57
2020/12/30 08:24:57;;;;;;;4.05;1.40;;;23.60;75.00;;;;;;5073677;28;20016;-58
2020/12/30 08:27:29;;;;;;;4.90;1.45;;;23.60;75.30;;;;;;5071389;28;20071;-59
2020/12/30 08:29:57;;;;;;;7.15;1.20;;;23.60;75.30;;;;;;5072743;28;20021;-57
2020/12/30 08:32:33;;;;;;;3.50;1.17;;;23.60;75.30;;;;;;5072745;28;20036;-58
2020/12/30 08:35:34;;;;;;;4.57;1.25;;;23.60;75.80;;;;;;5073718;28;20024;-60
2020/12/30 08:38:18;;;;;;;4.65;1.27;;;23.60;75.80;;;;;;5066823;28;20044;-52
2020/12/30 08:40:51;;;;;;;7.32;2.13;;;23.60;75.70;;;;;;5073404;28;20012;-63
2020/12/30 08:43:41;;;;;;;4.60;1.30;;;23.60;75.80;;;;;;5073443;28;20032;-61
2020/12/30 08:46:19;;;;;;;6.00;1.67;;;23.60;75.80;;;;;;5070563;28;20145;-56
2020/12/30 08:48:51;;;;;;;3.90;1.05;;;23.60;76.10;;;;;;5068536;28;20043;-55
2020/12/30 08:51:28;;;;;;;;;;;23.60;76.20;;;;;;5068647;28;20025;-57
2020/12/30 08:53:55;;;;;;;19.15;2.33;;;23.60;76.40;;;;;;5073480;28;20321;-60
2020/12/30 08:56:23;;;;;;;3.58;1.20;;;23.60;76.60;;;;;;5073058;28;20089;-62
2020/12/30 08:58:58;;;;;;;3.33;1.25;;;23.60;76.90;;;;;;5069268;28;20028;-61
2020/12/30 09:01:27;;;;;;;3.35;1.33;;;23.60;77.10;;;;;;5071590;28;20040;-61
2020/12/30 09:04:08;;;;;;;4.95;1.52;;;23.60;77.10;;;;;;5071850;28;20021;-61
2020/12/30 09:06:36;;;;;;;5.50;1.48;;;23.60;77.20;;;;;;5071118;28;20035;-63
2020/12/30 09:09:11;;;;;;;4.13;1.63;;;23.60;77.00;;;;;;5073787;28;20114;-63
2020/12/30 09:11:50;;;;;;;3.88;1.65;;;23.60;76.90;;;;;;5073789;28;20035;-61
2020/12/30 09:14:21;;;;;;;4.20;1.35;;;23.60;77.30;;;;;;5063986;28;20021;-59
2020/12/30 09:17:00;;;;;;;;;;;23.60;77.60;;;;;;5069260;28;20024;-57
2020/12/30 09:19:28;;;;;;;6.78;1.85;;;23.60;77.70;;;;;;5071326;28;19912;-63
2020/12/30 09:22:09;;;;;;;6.13;2.30;;;23.60;77.60;;;;;;5070097;28;20429;-62
2020/12/30 09:24:38;;;;;;;7.30;1.88;;;23.60;78.10;;;;;;5070751;28;20166;-63
2020/12/30 09:27:36;;;;;;;7.28;1.83;;;23.60;78.10;;;;;;5066489;28;20115;-55
2020/12/30 09:30:18;;;;;;;12.80;2.20;;;23.60;78.00;;;;;;5059201;28;20471;-54
2020/12/30 09:32:46;;;;;;;9.63;2.22;;;23.60;77.90;;;;;;5070925;28;20025;-60
2020/12/30 09:35:16;;;;;;;3.20;1.20;;;23.60;77.80;;;;;;5065973;28;20020;-58
2020/12/30 09:37:52;;;;;;;6.05;1.73;;;23.60;77.90;;;;;;5069276;28;20021;-61
2020/12/30 09:40:19;;;;;;;3.58;1.10;;;23.50;77.90;;;;;;5071138;28;20032;-62
2020/12/30 09:42:48;;;;;;;6.15;1.60;;;23.50;77.90;;;;;;5071614;28;20538;-53
2020/12/30 09:45:18;;;;;;;6.05;1.55;;;23.50;78.50;;;;;;5067974;28;20033;-53
2020/12/30 09:47:46;;;;;;;7.53;1.88;;;23.50;78.00;;;;;;5071348;28;20031;-55
2020/12/30 09:50:17;;;;;;;6.13;1.88;;;23.50;77.90;;;;;;5072598;28;20036;-56
2020/12/30 09:52:46;;;;;;;9.03;2.33;;;23.50;78.00;;;;;;5072325;28;20025;-52
2020/12/30 09:55:14;;;;;;;5.45;1.90;;;23.40;77.90;;;;;;5068470;28;20039;-54
2020/12/30 09:57:42;;;;;;;9.13;1.75;;;23.40;77.90;;;;;;5070452;28;20028;-51
2020/12/30 10:00:10;;;;;;;4.72;1.55;;;23.40;77.90;;;;;;5072170;28;20024;-58
2020/12/30 10:02:37;;;;;;;5.15;2.05;;;23.40;78.00;;;;;;5072292;28;20059;-60
2020/12/30 10:05:05;;;;;;;4.82;1.75;;;23.40;77.90;;;;;;5067429;28;20016;-56
2020/12/30 10:07:32;;;;;;;7.55;1.92;;;23.40;78.20;;;;;;5066171;28;20551;-59
2020/12/30 10:09:59;;;;;;;4.25;1.20;;;23.40;78.20;;;;;;5071694;28;20064;-59
2020/12/30 10:12:27;;;;;;;3.78;1.70;;;23.40;78.00;;;;;;5071796;28;20038;-60
2020/12/30 10:14:54;;;;;;;3.42;1.42;;;23.40;77.90;;;;;;5069779;28;20074;-57
2020/12/30 10:17:23;;;;;;;4.22;1.55;;;23.40;77.90;;;;;;5067550;28;20048;-63
2020/12/30 10:19:50;;;;;;;5.15;1.83;;;23.40;78.10;;;;;;5072011;28;20074;-57
2020/12/30 10:22:17;;;;;;;5.20;1.25;;;23.40;78.10;;;;;;5071668;28;20169;-58
2020/12/30 10:24:45;;;;;;;4.70;1.40;;;23.40;78.00;;;;;;5070930;28;20079;-60
2020/12/30 10:27:16;;;;;;;6.25;1.48;;;23.40;78.00;;;;;;5064420;28;20257;-61
2020/12/30 10:29:43;;;;;;;7.38;1.85;;;23.30;78.20;;;;;;5071798;28;20031;-59
2020/12/30 10:32:14;;;;;;;4.00;1.30;;;23.30;78.10;;;;;;5067814;28;20029;-58
2020/12/30 10:34:42;;;;;;;4.35;1.20;;;23.30;78.20;;;;;;5071002;28;20020;-54
2020/12/30 10:37:10;;;;;;;8.85;1.90;;;23.30;78.40;;;;;;5066436;28;20021;-56
2020/12/30 10:39:37;;;;;;;7.35;1.50;;;23.30;78.50;;;;;;5071661;28;20028;-64
2020/12/30 10:42:05;;;;;;;6.38;1.52;;;23.30;78.70;;;;;;5071692;28;20040;-62
2020/12/30 10:44:33;;;;;;;7.05;1.90;;;23.30;78.80;;;;;;5071640;28;20611;-61
2020/12/30 10:47:00;;;;;;;5.47;1.48;;;23.30;78.80;;;;;;5066387;28;20543;-61
2020/12/30 10:49:32;;;;;;;5.55;1.60;;;23.30;78.70;;;;;;5070929;28;20024;-60
2020/12/30 10:52:00;;;;;;;5.25;1.65;;;23.30;78.70;;;;;;5070179;28;20024;-60
2020/12/30 10:54:27;;;;;;;7.45;1.90;;;23.30;78.50;;;;;;5068544;28;20124;-55
2020/12/30 10:56:55;;;;;;;6.53;1.75;;;23.20;78.10;;;;;;5065123;28;20077;-54
2020/12/30 10:59:23;;;;;;;6.05;1.52;;;23.20;78.40;;;;;;5070966;28;20146;-60
2020/12/30 11:01:54;;;;;;;3.20;1.65;;;23.20;78.30;;;;;;5070052;28;20040;-56
2020/12/30 11:04:23;;;;;;;4.63;1.87;;;23.20;78.30;;;;;;5069757;28;20031;-55
2020/12/30 11:06:51;;;;;;;5.22;1.77;;;23.20;77.70;;;;;;5065401;28;20031;-60
2020/12/30 11:09:18;;;;;;;7.93;2.22;;;23.20;78.20;;;;;;5071229;28;20028;-58
2020/12/30 11:11:48;;;;;;;3.25;1.63;;;23.20;78.20;;;;;;5070902;28;20023;-57
2020/12/30 11:14:15;;;;;;;4.00;1.15;;;23.20;77.70;;;;;;5071062;28;20494;-61
2020/12/30 11:16:51;;;;;;;5.72;1.52;;;23.20;78.10;;;;;;5064800;28;20039;-58
2020/12/30 11:19:19;;;;;;;3.47;1.20;;;23.10;77.80;;;;;;5071221;28;20133;-58
2020/12/30 11:21:55;;;;;;;7.60;1.77;;;23.10;78.00;;;;;;5071194;28;20585;-56
2020/12/30 11:24:23;;;;;;;4.72;1.70;;;23.10;78.00;;;;;;5070495;28;20116;-60
2020/12/30 11:26:51;;;;;;;4.60;1.27;;;23.10;78.10;;;;;;5064668;28;20024;-52
2020/12/30 11:29:18;;;;;;;5.85;1.80;;;23.20;78.70;;;;;;5070776;28;20028;-61
2020/12/30 11:31:46;;;;;;;3.45;1.27;;;23.10;77.60;;;;;;5070692;28;20028;-55
2020/12/30 11:34:13;;;;;;;5.93;1.73;;;23.10;77.70;;;;;;5070845;28;20096;-51
2020/12/30 11:36:42;;;;;;;7.22;1.58;;;23.10;77.80;;;;;;5064349;28;20028;-55
2020/12/30 11:39:09;;;;;;;5.32;1.33;;;23.10;77.90;;;;;;5070336;28;20028;-55
2020/12/30 11:41:37;;;;;;;2.75;1.30;;;23.10;77.90;;;;;;5070551;28;20106;-56
2020/12/30 11:44:04;;;;;;;3.42;1.35;;;23.10;77.80;;;;;;5071523;28;20020;-56
2020/12/30 11:46:32;;;;;;;3.38;1.33;;;23.10;77.70;;;;;;5062838;28;20115;-59
2020/12/30 11:48:59;;;;;;;4.18;1.60;;;23.10;77.60;;;;;;5070565;28;20034;-60
2020/12/30 11:51:26;;;;;;;4.82;1.35;;;23.00;77.60;;;;;;5070497;28;20031;-56
2020/12/30 11:53:54;;;;;;;2.80;1.45;;;23.00;77.50;;;;;;5070428;28;20032;-58
2020/12/30 11:56:24;;;;;;;6.15;2.28;;;23.10;77.70;;;;;;5064906;28;20376;-59
2020/12/30 11:58:53;;;;;;;5.50;1.85;;;23.00;77.30;;;;;;5068936;28;20031;-61
2020/12/30 12:01:20;;;;;;;5.70;1.98;;;23.00;77.10;;;;;;5070534;28;20067;-60
2020/12/30 12:03:47;;;;;;;4.55;1.23;;;23.00;77.00;;;;;;5070547;28;20506;-56
2020/12/30 12:06:15;;;;;;;3.25;1.20;;;23.00;77.40;;;;;;5065049;28;20479;-60
2020/12/30 12:08:42;;;;;;;5.07;1.52;;;23.00;77.30;;;;;;5065970;28;20029;-50
2020/12/30 12:11:11;;;;;;;4.07;1.45;;;23.00;77.20;;;;;;5070641;28;20051;-55
2020/12/30 12:13:38;;;;;;;5.18;1.70;;;23.00;77.20;;;;;;5070338;28;20021;-56
2020/12/30 12:16:05;;;;;;;4.03;1.48;;;23.00;77.20;;;;;;5063036;28;20071;-57
2020/12/30 12:18:33;;;;;;;4.32;1.58;;;23.00;77.20;;;;;;5070101;28;20553;-68
2020/12/30 12:21:02;;;;;;;4.47;1.40;;;23.00;77.10;;;;;;5071357;28;20049;-53
2020/12/30 12:23:29;;;;;;;3.40;1.17;;;22.90;77.00;;;;;;5071338;28;20519;-60
2020/12/30 12:25:57;;;;;;;4.07;1.48;;;22.90;77.10;;;;;;5071548;28;20039;-54
2020/12/30 12:28:56;;;;;;;2.40;1.10;;;22.90;77.20;;;;;;5072014;28;20046;-60
2020/12/30 12:31:24;;;;;;;3.00;1.02;;;22.90;77.20;;;;;;5071689;28;20028;-57
2020/12/30 12:33:51;;;;;;;4.45;1.27;;;22.90;77.20;;;;;;5071538;28;20467;-61
2020/12/30 12:36:22;;;;;;;2.60;1.23;;;22.80;77.20;;;;;;5071647;28;20475;-61
2020/12/30 12:38:49;;;;;;;4.53;1.40;;;22.80;77.40;;;;;;5071509;28;20112;-60
2020/12/30 12:41:20;;;;;;;2.08;1.15;;;22.80;77.40;;;;;;5073847;28;20503;-63
2020/12/30 12:43:48;;;;;;;7.22;1.50;;;22.70;77.50;;;;;;5074856;28;20078;-62
2020/12/30 12:46:18;;;;;;;3.55;1.10;;;22.70;77.60;;;;;;5074870;28;20086;-57
2020/12/30 12:48:46;;;;;;;5.95;1.75;;;22.70;77.60;;;;;;5074680;28;20048;-60
2020/12/30 12:51:13;;;;;;;4.40;1.65;;;22.60;77.60;;;;;;5074933;28;20379;-60
2020/12/30 12:53:41;;;;;;;4.13;1.88;;;22.60;77.60;;;;;;5074567;28;20096;-61
2020/12/30 12:56:15;;;;;;;4.15;1.55;;;22.60;77.70;;;;;;5074906;28;20352;-62
2020/12/30 12:58:42;;;;;;;6.72;1.17;;;22.60;77.70;;;;;;5073668;28;20017;-61
2020/12/30 13:01:09;;;;;;;3.95;0.90;;;22.60;77.80;;;;;;5074656;28;20071;-58